Time;durP1;ratioP1;P1;durP2;ratioP2;P2;SDS_P1;SDS_P2;PMS_P1;PMS_P2;Temp;Humidity;BMP_temperature;BMP_pressure;BME280_temperature;BME280_humidity;BME280_pressure;Samples;Min_cycle;Max_cycle;Signal;HPM_P1;HPM_P2
2023/04/30 00:01:09;;;;;;;;;;;;;;;19.96;45.44;95814.44;10227187;28;1891;-60
2023/04/30 00:06:09;;;;;;;;;;;;;;;19.95;45.17;95804.97;10229230;28;2071;-60
2023/04/30 00:11:10;;;;;;;;;;;;;;;19.95;45.18;95805.75;10238585;28;2134;-62
2023/04/30 00:16:10;;;;;;;;;;;;;;;19.94;45.45;95811.31;10227855;28;2140;-61
2023/04/30 00:21:10;;;;;;;;;;;;;;;19.93;45.29;95817.59;10229560;28;1961;-61
2023/04/30 00:26:11;;;;;;;;;;;;;;;19.93;45.27;95818.41;10230001;28;1981;-61
2023/04/30 00:31:11;;;;;;;;;;;;;;;19.92;45.38;95822.09;10227098;28;2286;-61
2023/04/30 00:36:11;;;;;;;;;;;;;;;19.92;45.16;95827.38;10227451;28;2032;-61
2023/04/30 00:41:11;;;;;;;;;;;;;;;19.90;45.19;95834.72;10232528;28;2136;-61
2023/04/30 00:46:12;;;;;;;;;;;;;;;19.91;45.18;95835.50;10224918;28;2316;-61
2023/04/30 00:51:12;;;;;;;;;;;;;;;19.90;45.09;95834.72;10223369;28;5179;-61
2023/04/30 00:56:12;;;;;;;;;;;;;;;19.90;45.21;95831.31;10227141;28;2186;-63
2023/04/30 01:01:12;;;;;;;;;;;;;;;19.89;45.19;95835.78;10223170;28;2073;-61
2023/04/30 01:06:13;;;;;;;;;;;;;;;19.90;45.17;95833.94;10229702;28;2002;-61
2023/04/30 01:11:13;;;;;;;;;;;;;;;19.89;45.04;95834.97;10232800;28;2115;-61
2023/04/30 01:16:14;;;;;;;;;;;;;;;19.88;44.87;95846.56;10232230;28;2111;-60
2023/04/30 01:21:14;;;;;;;;;;;;;;;19.86;44.91;95844.22;10241322;28;1997;-61
2023/04/30 01:26:14;;;;;;;;;;;;;;;19.85;45.15;95842.63;10235838;28;2108;-61
2023/04/30 01:31:17;;;;;;;;;;;;;;;19.85;44.94;95847.88;10231997;28;2063;-61
2023/04/30 01:36:32;;;;;;;;;;;;;;;19.85;44.89;95847.09;10230810;28;2020;-61
2023/04/30 01:41:33;;;;;;;;;;;;;;;19.84;44.95;95859.47;10215989;28;1970;-61
2023/04/30 01:46:33;;;;;;;;;;;;;;;19.84;44.84;95850.78;10234188;28;2144;-61
2023/04/30 01:51:41;;;;;;;;;;;;;;;19.84;44.77;95846.31;10232450;28;5120;-61
2023/04/30 01:56:43;;;;;;;;;;;;;;;19.84;44.94;95856.06;10231760;28;1977;-61
2023/04/30 02:01:43;;;;;;;;;;;;;;;19.84;44.69;95848.16;10233692;28;1945;-61
2023/04/30 02:06:44;;;;;;;;;;;;;;;19.83;44.84;95850.00;10233160;28;2020;-62
2023/04/30 02:11:44;;;;;;;;;;;;;;;19.82;44.64;95863.41;10232751;28;1972;-61
2023/04/30 02:16:44;;;;;;;;;;;;;;;19.82;44.73;95858.16;10242289;28;1985;-61
2023/04/30 02:21:44;;;;;;;;;;;;;;;19.81;44.65;95851.31;10228342;28;1950;-61
2023/04/30 02:26:45;;;;;;;;;;;;;;;19.82;44.84;95861.59;10232180;28;2107;-61
2023/04/30 02:31:45;;;;;;;;;;;;;;;19.79;44.57;95851.59;10234628;28;2084;-61
2023/04/30 02:36:45;;;;;;;;;;;;;;;19.81;44.77;95862.63;10228787;28;2055;-61
2023/04/30 02:41:46;;;;;;;;;;;;;;;19.81;44.75;95861.81;10227664;28;1960;-61
2023/04/30 02:46:46;;;;;;;;;;;;;;;19.79;44.88;95858.69;10224889;28;2109;-61
2023/04/30 02:51:46;;;;;;;;;;;;;;;19.78;44.54;95865.00;10231236;28;5236;-61
2023/04/30 02:56:46;;;;;;;;;;;;;;;19.78;44.54;95867.63;10227821;28;2170;-61
2023/04/30 03:01:47;;;;;;;;;;;;;;;19.77;44.54;95877.34;10232659;28;2003;-61
2023/04/30 03:06:47;;;;;;;;;;;;;;;19.76;44.58;95867.91;10226443;28;2108;-61
2023/04/30 03:11:48;;;;;;;;;;;;;;;19.78;44.42;95870.25;10225464;28;2111;-61
2023/04/30 03:16:48;;;;;;;;;;;;;;;19.77;44.41;95866.03;10228114;28;1986;-61
2023/04/30 03:21:48;;;;;;;;;;;;;;;19.76;44.48;95859.22;10227849;28;2001;-61
2023/04/30 03:26:49;;;;;;;;;;;;;;;19.76;44.39;95867.13;10231516;28;1975;-61
2023/04/30 03:31:49;;;;;;;;;;;;;;;19.74;44.56;95854.19;10235644;28;2164;-61
2023/04/30 03:36:50;;;;;;;;;;;;;;;19.74;44.61;95856.84;10230789;28;2012;-61
2023/04/30 03:41:50;;;;;;;;;;;;;;;19.75;44.49;95849.75;10215092;28;1963;-61
2023/04/30 03:46:50;;;;;;;;;;;;;;;19.74;44.46;95845.53;10226680;28;1971;-61
2023/04/30 03:51:50;;;;;;;;;;;;;;;19.73;44.35;95859.75;10227581;28;4803;-61
2023/04/30 03:56:51;;;;;;;;;;;;;;;19.72;44.28;95848.41;10231755;28;1954;-61
2023/04/30 04:01:51;;;;;;;;;;;;;;;19.72;44.27;95834.50;10223326;28;2202;-61
2023/04/30 04:06:51;;;;;;;;;;;;;;;19.72;44.39;95837.13;10221663;28;2023;-61
2023/04/30 04:11:51;;;;;;;;;;;;;;;19.73;44.22;95841.31;10233184;28;2203;-61
2023/04/30 04:16:52;;;;;;;;;;;;;;;19.77;44.10;95845.00;10232579;28;1966;-61
2023/04/30 04:21:52;;;;;;;;;;;;;;;19.83;44.10;95849.19;10229691;28;2122;-61
2023/04/30 04:26:52;;;;;;;;;;;;;;;19.87;44.24;95851.03;10226581;28;1994;-61
2023/04/30 04:31:54;;;;;;;;;;;;;;;19.92;44.01;95864.19;10232567;28;2050;-61
2023/04/30 04:36:54;;;;;;;;;;;;;;;20.00;44.00;95873.38;10232233;28;1961;-61
2023/04/30 04:41:55;;;;;;;;;;;;;;;20.07;43.89;95879.16;10228437;28;1978;-61
2023/04/30 04:46:55;;;;;;;;;;;;;;;20.14;43.95;95882.28;10239044;28;2013;-62
2023/04/30 04:51:55;;;;;;;;;;;;;;;20.22;43.82;95881.75;10232536;28;1977;-61
2023/04/30 04:56:56;;;;;;;;;;;;;;;20.27;43.62;95881.75;10236306;28;2005;-62
2023/04/30 05:01:56;;;;;;;;;;;;;;;20.35;43.61;95878.56;10236275;28;2092;-61
2023/04/30 05:06:56;;;;;;;;;;;;;;;20.41;43.64;95889.88;10234498;28;1977;-61
2023/04/30 05:11:56;;;;;;;;;;;;;;;20.45;43.54;95886.44;10239414;28;2006;-61
2023/04/30 05:16:57;;;;;;;;;;;;;;;20.49;43.48;95890.09;10235638;28;2096;-62
2023/04/30 05:21:57;;;;;;;;;;;;;;;20.55;43.33;95898.75;10234396;28;2007;-61
2023/04/30 05:26:57;;;;;;;;;;;;;;;20.57;43.13;95892.19;10233488;28;2257;-61
2023/04/30 05:31:58;;;;;;;;;;;;;;;20.61;43.19;95900.34;10239333;28;2008;-62
2023/04/30 05:36:58;;;;;;;;;;;;;;;20.64;43.14;95903.22;10235009;28;2106;-62
2023/04/30 05:41:58;;;;;;;;;;;;;;;20.65;43.20;95904.03;10215409;28;2298;-62
2023/04/30 05:46:59;;;;;;;;;;;;;;;20.68;42.96;95909.53;10229461;28;1938;-61
2023/04/30 05:52:00;;;;;;;;;;;;;;;20.69;43.03;95900.56;10231364;28;2102;-62
2023/04/30 05:57:00;;;;;;;;;;;;;;;20.71;43.00;95906.34;10234723;28;2108;-62
2023/04/30 06:02:01;;;;;;;;;;;;;;;20.70;43.01;95907.41;10238225;28;1973;-61
2023/04/30 06:07:01;;;;;;;;;;;;;;;20.72;43.05;95892.13;10229316;28;1952;-61
2023/04/30 06:12:02;;;;;;;;;;;;;;;20.74;42.91;95897.13;10236075;28;1929;-60
2023/04/30 06:17:03;;;;;;;;;;;;;;;20.72;42.71;95889.50;10223519;28;1977;-62
2023/04/30 06:22:03;;;;;;;;;;;;;;;20.73;42.69;95891.06;10232740;28;2119;-60
2023/04/30 06:27:04;;;;;;;;;;;;;;;20.73;42.77;95896.31;10231434;28;2238;-61
2023/04/30 06:32:04;;;;;;;;;;;;;;;20.73;42.78;95890.28;10234973;28;1989;-62
2023/04/30 06:37:04;;;;;;;;;;;;;;;20.72;42.56;95886.84;10234584;28;1977;-62
2023/04/30 06:42:05;;;;;;;;;;;;;;;20.69;42.73;95890.00;10232290;28;2043;-64
2023/04/30 06:47:05;;;;;;;;;;;;;;;20.66;42.83;95887.94;10234066;28;1978;-62
2023/04/30 06:52:05;;;;;;;;;;;;;;;20.63;42.82;95896.38;10231774;28;4874;-62
2023/04/30 06:57:06;;;;;;;;;;;;;;;20.61;42.76;95901.13;10230146;28;2018;-62
2023/04/30 07:02:06;;;;;;;;;;;;;;;20.59;42.78;95894.53;10226037;28;1989;-62
2023/04/30 07:07:06;;;;;;;;;;;;;;;20.56;42.90;95887.19;10230121;28;2000;-62
2023/04/30 07:12:07;;;;;;;;;;;;;;;20.52;42.80;95889.59;10238044;28;1990;-62
2023/04/30 07:17:07;;;;;;;;;;;;;;;20.51;43.02;95888.00;10226269;28;1915;-62
2023/04/30 07:22:08;;;;;;;;;;;;;;;20.48;42.99;95888.53;10248027;28;1966;-62
2023/04/30 07:27:08;;;;;;;;;;;;;;;20.47;43.01;95891.44;10236809;28;2021;-60
2023/04/30 07:32:08;;;;;;;;;;;;;;;20.45;42.88;95891.69;10234133;28;1965;-60
2023/04/30 07:37:09;;;;;;;;;;;;;;;20.43;42.97;95893.03;10229889;28;2027;-60
2023/04/30 07:42:09;;;;;;;;;;;;;;;20.39;43.33;95890.16;10225655;28;2051;-62
2023/04/30 07:47:09;;;;;;;;;;;;;;;20.38;43.12;95888.56;10229265;28;2297;-60
2023/04/30 07:52:11;;;;;;;;;;;;;;;20.40;43.09;95878.56;10226454;28;2348;-63
2023/04/30 07:57:11;;;;;;;;;;;;;;;20.38;43.18;95875.38;10234457;28;1930;-65
2023/04/30 08:02:12;;;;;;;;;;;;;;;20.41;43.32;95881.97;10228930;28;2031;-65
2023/04/30 08:07:14;;;;;;;;;;;;;;;20.39;43.67;95879.63;10235063;28;2066;-62
2023/04/30 08:12:15;;;;;;;;;;;;;;;20.40;44.01;95886.47;10227454;28;2187;-66
2023/04/30 08:17:15;;;;;;;;;;;;;;;20.38;43.88;95882.53;10232322;28;1966;-61
2023/04/30 08:22:16;;;;;;;;;;;;;;;20.39;43.92;95882.25;10236905;28;2064;-63
2023/04/30 08:27:16;;;;;;;;;;;;;;;20.36;43.84;95882.00;10256537;28;1912;-61
2023/04/30 08:32:17;;;;;;;;;;;;;;;20.36;43.91;95885.41;10237036;28;2141;-63
2023/04/30 08:37:17;;;;;;;;;;;;;;;20.35;43.70;95889.09;10244490;28;2283;-64
2023/04/30 08:42:18;;;;;;;;;;;;;;;20.33;43.86;95880.69;10250004;28;1809;-64
2023/04/30 08:47:18;;;;;;;;;;;;;;;20.32;43.80;95879.09;10247054;28;1914;-63
2023/04/30 08:52:18;;;;;;;;;;;;;;;20.30;43.51;95878.59;10241009;28;4912;-62
2023/04/30 08:57:18;;;;;;;;;;;;;;;20.30;43.39;95877.81;10229703;28;1903;-61
2023/04/30 09:02:19;;;;;;;;;;;;;;;20.27;43.63;95887.81;10232217;28;1929;-60
2023/04/30 09:07:19;;;;;;;;;;;;;;;20.27;43.24;95889.66;10221574;28;2159;-60
2023/04/30 09:12:21;;;;;;;;;;;;;;;20.25;43.48;95881.25;10230513;28;1959;-61
2023/04/30 09:17:21;;;;;;;;;;;;;;;20.23;43.56;95883.34;10233384;28;1955;-59
2023/04/30 09:22:22;;;;;;;;;;;;;;;20.22;43.47;95889.66;10238640;28;1867;-59
2023/04/30 09:27:23;;;;;;;;;;;;;;;20.21;43.51;95888.91;10247521;28;1977;-61
2023/04/30 09:32:23;;;;;;;;;;;;;;;20.21;43.27;95886.25;10236115;28;1923;-61
2023/04/30 09:37:34;;;;;;;;;;;;;;;20.20;43.45;95892.56;10233588;28;1900;-60
2023/04/30 09:42:34;;;;;;;;;;;;;;;20.19;43.23;95885.75;10239327;28;1840;-60
2023/04/30 09:47:35;;;;;;;;;;;;;;;20.18;43.26;95888.59;10236737;28;1919;-60
2023/04/30 09:52:35;;;;;;;;;;;;;;;20.16;43.39;95888.88;10227048;28;5034;-66
2023/04/30 09:57:36;;;;;;;;;;;;;;;20.16;43.46;95886.22;10231835;28;1897;-64
2023/04/30 10:02:36;;;;;;;;;;;;;;;20.17;43.38;95881.75;10227304;28;2040;-65
2023/04/30 10:07:37;;;;;;;;;;;;;;;20.16;43.23;95880.97;10232153;28;1958;-63
2023/04/30 10:12:47;;;;;;;;;;;;;;;20.14;43.34;95885.72;10234487;28;1954;-64
2023/04/30 10:17:49;;;;;;;;;;;;;;;20.14;43.37;95877.03;10250255;28;1883;-62
2023/04/30 10:22:50;;;;;;;;;;;;;;;20.16;43.43;95877.53;10229282;28;1851;-62
2023/04/30 10:27:51;;;;;;;;;;;;;;;20.13;43.57;95870.97;10238445;28;1914;-65
2023/04/30 10:33:05;;;;;;;;;;;;;;;20.13;43.35;95863.06;10239029;28;1953;-63
2023/04/30 10:38:11;;;;;;;;;;;;;;;20.14;43.41;95866.50;10239295;28;1918;-64
2023/04/30 10:43:11;;;;;;;;;;;;;;;20.12;43.68;95856.25;10231663;28;1845;-62
2023/04/30 10:48:12;;;;;;;;;;;;;;;20.12;43.25;95850.97;10249342;28;2052;-63
2023/04/30 10:53:14;;;;;;;;;;;;;;;20.13;43.59;95846.50;10251536;28;4755;-64
2023/04/30 10:58:42;;;;;;;;;;;;;;;20.12;43.43;95843.09;10243031;28;2085;-62
2023/04/30 11:04:03;;;;;;;;;;;;;;;20.14;43.54;95840.19;10232606;28;1881;-65
2023/04/30 11:09:03;;;;;;;;;;;;;;;20.14;43.78;95843.59;10234570;28;1910;-66
2023/04/30 11:14:03;;;;;;;;;;;;;;;20.13;44.10;95838.63;10233189;28;1975;-64
2023/04/30 11:19:11;;;;;;;;;;;;;;;20.15;44.28;95829.38;10242960;28;1956;-63
2023/04/30 11:24:11;;;;;;;;;;;;;;;20.16;44.31;95828.34;10232757;28;1968;-64
2023/04/30 11:29:12;;;;;;;;;;;;;;;20.16;44.42;95827.53;10247282;28;2088;-64
2023/04/30 11:34:12;;;;;;;;;;;;;;;20.18;44.47;95810.44;10248058;28;1889;-64
2023/04/30 11:39:14;;;;;;;;;;;;;;;20.18;44.55;95820.97;10243121;28;1880;-64
2023/04/30 11:44:21;;;;;;;;;;;;;;;20.20;44.55;95824.13;10237704;28;1907;-64
2023/04/30 11:49:21;;;;;;;;;;;;;;;20.20;44.68;95825.97;10243150;28;4915;-64
2023/04/30 11:54:21;;;;;;;;;;;;;;;20.20;44.46;95824.13;10240226;28;2024;-64
2023/04/30 11:59:22;;;;;;;;;;;;;;;20.21;44.54;95814.41;10245084;28;2157;-64
2023/04/30 12:04:22;;;;;;;;;;;;;;;20.20;44.57;95808.34;10246127;28;2021;-62
2023/04/30 12:09:22;;;;;;;;;;;;;;;20.20;44.56;95815.44;10244318;28;1949;-62
2023/04/30 12:14:23;;;;;;;;;;;;;;;20.17;44.59;95814.09;10241696;28;1931;-63
2023/04/30 12:19:24;;;;;;;;;;;;;;;20.19;44.28;95812.06;10241440;28;2007;-63
2023/04/30 12:24:24;;;;;;;;;;;;;;;20.17;44.21;95808.84;10240496;28;1932;-64
2023/04/30 12:29:24;;;;;;;;;;;;;;;20.15;44.45;95800.44;10233345;28;1915;-61
2023/04/30 12:34:25;;;;;;;;;;;;;;;20.15;44.35;95812.81;10242072;28;1895;-61
2023/04/30 12:39:25;;;;;;;;;;;;;;;20.15;44.45;95805.69;10234097;28;2063;-63
2023/04/30 12:44:26;;;;;;;;;;;;;;;20.16;44.49;95801.22;10239974;28;2009;-63
2023/04/30 12:49:27;;;;;;;;;;;;;;;20.16;44.65;95802.00;10229214;28;2126;-63
2023/04/30 12:54:27;;;;;;;;;;;;;;;20.16;44.52;95788.84;10245661;28;1891;-63
2023/04/30 12:59:28;;;;;;;;;;;;;;;20.17;44.49;95784.38;10247755;28;1891;-63
2023/04/30 13:04:28;;;;;;;;;;;;;;;20.18;44.88;95773.59;10242797;28;1967;-62
2023/04/30 13:09:30;;;;;;;;;;;;;;;20.17;44.70;95760.69;10253222;28;1896;-62
2023/04/30 13:14:31;;;;;;;;;;;;;;;20.20;44.94;95765.44;10244074;28;1854;-61
2023/04/30 13:19:31;;;;;;;;;;;;;;;20.22;44.86;95763.31;10240180;28;1876;-60
2023/04/30 13:24:31;;;;;;;;;;;;;;;20.19;44.95;95748.06;10248286;28;1936;-61
2023/04/30 13:29:32;;;;;;;;;;;;;;;20.19;44.99;95748.88;10248625;28;1849;-61
2023/04/30 13:34:32;;;;;;;;;;;;;;;20.22;45.14;95747.53;10243110;28;1896;-60
2023/04/30 13:39:32;;;;;;;;;;;;;;;20.22;45.28;95732.53;10236807;28;1949;-61
2023/04/30 13:44:34;;;;;;;;;;;;;;;20.26;44.82;95736.19;10246630;28;1945;-61
2023/04/30 13:49:35;;;;;;;;;;;;;;;20.27;44.90;95723.81;10244111;28;4829;-61
2023/04/30 13:54:36;;;;;;;;;;;;;;;20.31;44.86;95718.81;10226951;28;2014;-62
2023/04/30 13:59:37;;;;;;;;;;;;;;;20.34;45.10;95724.28;10248359;28;1848;-61
2023/04/30 14:04:37;;;;;;;;;;;;;;;20.38;45.03;95724.56;10237366;28;1996;-61
2023/04/30 14:09:38;;;;;;;;;;;;;;;20.41;45.07;95714.25;10238139;28;1899;-61
2023/04/30 14:14:38;;;;;;;;;;;;;;;20.47;44.90;95713.16;10237893;28;1865;-62
2023/04/30 14:19:38;;;;;;;;;;;;;;;20.49;44.86;95711.03;10245442;28;1816;-61
2023/04/30 14:24:39;;;;;;;;;;;;;;;20.54;45.08;95707.59;10242237;28;1883;-61
2023/04/30 14:29:39;;;;;;;;;;;;;;;20.56;45.14;95701.00;10238878;28;1876;-61
2023/04/30 14:34:39;;;;;;;;;;;;;;;20.61;44.93;95698.31;10238364;28;1888;-61
2023/04/30 14:39:40;;;;;;;;;;;;;;;20.62;45.14;95699.91;10239975;28;1895;-61
2023/04/30 14:44:40;;;;;;;;;;;;;;;20.66;45.12;95700.94;10236371;28;2339;-61
2023/04/30 14:49:40;;;;;;;;;;;;;;;20.70;45.09;95688.78;10244428;28;4897;-61
2023/04/30 14:54:40;;;;;;;;;;;;;;;20.71;45.13;95677.16;10254761;28;1832;-62
2023/04/30 14:59:41;;;;;;;;;;;;;;;20.75;44.99;95693.22;10246086;28;1905;-62
2023/04/30 15:04:44;;;;;;;;;;;;;;;20.77;45.00;95697.13;10223784;28;1994;-61
2023/04/30 15:09:45;;;;;;;;;;;;;;;20.79;44.97;95689.75;10236216;28;1945;-61
2023/04/30 15:14:45;;;;;;;;;;;;;;;20.79;44.89;95691.63;10235299;28;2241;-62
2023/04/30 15:19:46;;;;;;;;;;;;;;;20.77;44.79;95689.22;10240150;28;1939;-62
2023/04/30 15:24:46;;;;;;;;;;;;;;;20.78;44.76;95682.13;10246097;28;1977;-61
2023/04/30 15:29:46;;;;;;;;;;;;;;;20.79;45.26;95687.13;10238933;28;1872;-62
2023/04/30 15:34:47;;;;;;;;;;;;;;;20.79;45.35;95684.47;10250513;28;1442;-62
2023/04/30 15:39:47;;;;;;;;;;;;;;;20.80;45.73;95682.63;10253431;28;2362;-62
2023/04/30 15:44:47;;;;;;;;;;;;;;;20.79;45.73;95681.84;10245454;28;1910;-62
2023/04/30 15:49:48;;;;;;;;;;;;;;;20.78;46.09;95688.19;10249047;28;4978;-62
2023/04/30 15:54:48;;;;;;;;;;;;;;;20.77;45.98;95676.06;10228480;28;1580;-62
2023/04/30 15:59:49;;;;;;;;;;;;;;;20.77;46.04;95668.16;10241580;28;1517;-62
2023/04/30 16:04:49;;;;;;;;;;;;;;;20.77;46.06;95670.78;10239663;28;1976;-64
2023/04/30 16:09:50;;;;;;;;;;;;;;;20.78;45.84;95676.84;10244863;28;1480;-62
2023/04/30 16:14:50;;;;;;;;;;;;;;;20.75;45.97;95667.66;10240409;28;1526;-63
2023/04/30 16:19:50;;;;;;;;;;;;;;;20.73;46.10;95667.13;10235675;28;1575;-64
2023/04/30 16:24:50;;;;;;;;;;;;;;;20.73;45.97;95680.31;10238708;28;2091;-64
2023/04/30 16:29:51;;;;;;;;;;;;;;;20.73;46.20;95664.50;10247676;28;1430;-62
2023/04/30 16:34:51;;;;;;;;;;;;;;;20.72;46.29;95654.25;10241173;28;2095;-64
2023/04/30 16:39:51;;;;;;;;;;;;;;;20.71;46.29;95656.09;10253869;28;1665;-64
2023/04/30 16:44:51;;;;;;;;;;;;;;;20.71;46.50;95650.06;10229707;28;1975;-63
2023/04/30 16:49:52;;;;;;;;;;;;;;;20.69;46.09;95647.69;10246245;28;4941;-61
2023/04/30 16:54:52;;;;;;;;;;;;;;;20.66;45.80;95653.53;10233744;28;1567;-63
2023/04/30 16:59:53;;;;;;;;;;;;;;;20.64;45.92;95650.38;10247988;28;1501;-61
2023/04/30 17:04:53;;;;;;;;;;;;;;;20.62;45.67;95652.50;10250520;28;1973;-63
2023/04/30 17:09:53;;;;;;;;;;;;;;;20.61;45.46;95656.19;10245944;28;1538;-62
2023/04/30 17:14:53;;;;;;;;;;;;;;;20.60;45.51;95662.53;10248428;28;1516;-64
2023/04/30 17:19:54;;;;;;;;;;;;;;;20.60;45.55;95665.16;10248682;28;1319;-62
2023/04/30 17:24:54;;;;;;;;;;;;;;;20.58;44.94;95664.66;10251232;28;1930;-62
2023/04/30 17:29:55;;;;;;;;;;;;;;;20.55;44.41;95661.75;10244394;28;1909;-63
2023/04/30 17:34:56;;;;;;;;;;;;;;;20.46;42.34;95664.22;10248553;28;1446;-63
2023/04/30 17:39:57;;;;;;;;;;;;;;;20.37;41.03;95665.84;10246110;28;1984;-64
2023/04/30 17:44:57;;;;;;;;;;;;;;;20.31;42.03;95661.69;10235738;28;1968;-63
2023/04/30 17:49:57;;;;;;;;;;;;;;;20.32;43.22;95663.25;10228396;28;4890;-63
2023/04/30 17:54:58;;;;;;;;;;;;;;;20.36;43.27;95660.88;10239378;28;1828;-63
2023/04/30 17:59:59;;;;;;;;;;;;;;;20.37;43.23;95655.31;10238813;28;2115;-63
2023/04/30 18:04:59;;;;;;;;;;;;;;;20.38;43.32;95662.13;10238097;28;2234;-63
2023/04/30 18:09:59;;;;;;;;;;;;;;;20.40;43.43;95667.94;10238909;28;1876;-63
2023/04/30 18:15:00;;;;;;;;;;;;;;;20.41;43.56;95666.88;10229007;28;1991;-63
2023/04/30 18:20:00;;;;;;;;;;;;;;;20.41;43.32;95663.44;10241811;28;2012;-63
2023/04/30 18:25:01;;;;;;;;;;;;;;;20.41;43.40;95666.88;10230617;28;1944;-63
2023/04/30 18:30:02;;;;;;;;;;;;;;;20.40;43.54;95665.31;10238184;28;2473;-63
2023/04/30 18:35:03;;;;;;;;;;;;;;;20.39;43.41;95660.31;10237854;28;1894;-63
2023/04/30 18:40:03;;;;;;;;;;;;;;;20.39;43.41;95658.47;10232671;28;1937;-62
2023/04/30 18:45:04;;;;;;;;;;;;;;;20.39;43.48;95658.47;10231898;28;1926;-62
2023/04/30 18:50:06;;;;;;;;;;;;;;;20.38;43.27;95667.41;10228705;28;2312;-62
2023/04/30 18:55:12;;;;;;;;;;;;;;;20.38;43.65;95667.41;10239871;28;2021;-62
2023/04/30 19:00:13;;;;;;;;;;;;;;;20.40;43.63;95678.47;10233054;28;1980;-63
2023/04/30 19:05:14;;;;;;;;;;;;;;;20.42;43.75;95678.19;10230180;28;1908;-62
2023/04/30 19:10:14;;;;;;;;;;;;;;;20.42;43.79;95675.56;10230204;28;1891;-62
2023/04/30 19:15:16;;;;;;;;;;;;;;;20.40;43.42;95673.22;10234172;28;1989;-63
2023/04/30 19:20:16;;;;;;;;;;;;;;;20.41;43.54;95681.88;10235614;28;1883;-62
2023/04/30 19:25:17;;;;;;;;;;;;;;;20.38;43.58;95682.44;10233953;28;2182;-62
2023/04/30 19:30:17;;;;;;;;;;;;;;;20.37;43.56;95683.47;10234241;28;2078;-63
2023/04/30 19:35:17;;;;;;;;;;;;;;;20.37;43.33;95670.31;10231617;28;1907;-62
2023/04/30 19:40:18;;;;;;;;;;;;;;;20.37;43.45;95675.59;10234300;28;2154;-61
2023/04/30 19:45:18;;;;;;;;;;;;;;;20.36;43.43;95676.66;10238016;28;1911;-62
2023/04/30 19:50:19;;;;;;;;;;;;;;;20.35;43.58;95683.75;10232901;28;4993;-62
2023/04/30 19:55:20;;;;;;;;;;;;;;;20.36;43.42;95685.31;10226321;28;2280;-61
2023/04/30 20:00:20;;;;;;;;;;;;;;;20.35;43.41;95688.25;10228745;28;2055;-62
2023/04/30 20:05:21;;;;;;;;;;;;;;;20.34;43.37;95671.66;10231014;28;1907;-62
2023/04/30 20:10:21;;;;;;;;;;;;;;;20.36;43.52;95674.03;10225288;28;1878;-62
2023/04/30 20:15:21;;;;;;;;;;;;;;;20.34;43.57;95671.66;10236172;28;1915;-62
2023/04/30 20:20:25;;;;;;;;;;;;;;;20.33;43.36;95672.72;10231556;28;1884;-62
2023/04/30 20:25:28;;;;;;;;;;;;;;;20.33;43.21;95669.28;10230523;28;1908;-62
2023/04/30 20:30:28;;;;;;;;;;;;;;;20.30;43.40;95668.00;10233299;28;1944;-62
2023/04/30 20:35:29;;;;;;;;;;;;;;;20.31;43.30;95661.69;10231453;28;1988;-62
2023/04/30 20:40:30;;;;;;;;;;;;;;;20.31;43.25;95663.53;10228151;28;1900;-62
2023/04/30 20:45:30;;;;;;;;;;;;;;;20.28;43.20;95657.75;10222869;28;1969;-63
2023/04/30 20:50:30;;;;;;;;;;;;;;;20.27;43.22;95652.75;10209432;28;4945;-63
2023/04/30 20:55:31;;;;;;;;;;;;;;;20.25;43.69;95653.03;10218025;28;1878;-62
2023/04/30 21:00:31;;;;;;;;;;;;;;;20.26;44.36;95654.59;10233320;28;1949;-61
2023/04/30 21:05:31;;;;;;;;;;;;;;;20.28;44.45;95652.47;10229213;28;1982;-60
2023/04/30 21:10:34;;;;;;;;;;;;;;;20.27;44.49;95648.28;10230875;28;2099;-61
2023/04/30 21:15:34;;;;;;;;;;;;;;;20.28;44.94;95646.41;10220887;28;2032;-62
2023/04/30 21:20:34;;;;;;;;;;;;;;;20.28;44.75;95651.69;10228757;28;1844;-62
2023/04/30 21:25:36;;;;;;;;;;;;;;;20.30;44.88;95641.66;10243400;28;2018;-62
2023/04/30 21:30:36;;;;;;;;;;;;;;;20.28;44.86;95639.31;10234895;28;2007;-62
2023/04/30 21:35:37;;;;;;;;;;;;;;;20.28;44.85;95631.41;10247730;28;1892;-62
2023/04/30 21:40:37;;;;;;;;;;;;;;;20.28;44.93;95630.63;10222755;28;1901;-62
2023/04/30 21:45:38;;;;;;;;;;;;;;;20.28;45.14;95628.78;10223015;28;1947;-62
2023/04/30 21:50:38;;;;;;;;;;;;;;;20.28;45.10;95625.38;10234592;28;4940;-61
2023/04/30 21:55:39;;;;;;;;;;;;;;;20.25;45.08;95626.72;10237812;28;1909;-62
2023/04/30 22:00:39;;;;;;;;;;;;;;;20.26;45.07;95627.47;10242275;28;1915;-62
2023/04/30 22:05:42;;;;;;;;;;;;;;;20.25;45.11;95624.09;10219451;28;1981;-61
2023/04/30 22:10:42;;;;;;;;;;;;;;;20.24;45.05;95613.81;10239905;28;1989;-62
2023/04/30 22:15:42;;;;;;;;;;;;;;;20.23;44.80;95612.25;10234596;28;2001;-62
2023/04/30 22:20:42;;;;;;;;;;;;;;;20.22;44.96;95605.41;10233230;28;1968;-62
2023/04/30 22:25:43;;;;;;;;;;;;;;;20.21;44.76;95593.31;10234360;28;1978;-62
2023/04/30 22:30:44;;;;;;;;;;;;;;;20.20;44.69;95595.16;10241196;28;1939;-61
2023/04/30 22:35:44;;;;;;;;;;;;;;;20.18;44.66;95589.34;10226990;28;1973;-61
2023/04/30 22:40:44;;;;;;;;;;;;;;;20.19;44.78;95587.50;10230878;28;1988;-62
2023/04/30 22:45:45;;;;;;;;;;;;;;;20.18;44.62;95575.41;10229789;28;1986;-62
2023/04/30 22:50:46;;;;;;;;;;;;;;;20.17;44.72;95581.75;10220853;28;4921;-62
2023/04/30 22:55:46;;;;;;;;;;;;;;;20.16;44.49;95585.41;10233442;28;1891;-63
2023/04/30 23:00:46;;;;;;;;;;;;;;;20.14;44.57;95577.81;10236489;28;1879;-62
2023/04/30 23:05:50;;;;;;;;;;;;;;;20.14;44.47;95580.44;10229360;28;1978;-62
2023/04/30 23:10:51;;;;;;;;;;;;;;;20.13;44.62;95570.94;10234308;28;2036;-61
2023/04/30 23:15:55;;;;;;;;;;;;;;;20.12;44.32;95564.13;10236160;28;2006;-61
2023/04/30 23:20:58;;;;;;;;;;;;;;;20.12;44.58;95558.09;10234441;28;1972;-62
2023/04/30 23:25:59;;;;;;;;;;;;;;;20.12;44.32;95547.56;10237412;28;2186;-61
2023/04/30 23:30:59;;;;;;;;;;;;;;;20.11;44.33;95541.50;10231431;28;1900;-61
2023/04/30 23:35:59;;;;;;;;;;;;;;;20.09;44.35;95548.88;10234814;28;1925;-62
2023/04/30 23:41:01;;;;;;;;;;;;;;;20.09;44.37;95548.13;10237695;28;1966;-62
2023/04/30 23:46:01;;;;;;;;;;;;;;;20.08;44.19;95538.63;10228588;28;1983;-62
2023/04/30 23:51:03;;;;;;;;;;;;;;;20.07;44.13;95540.47;10234947;28;4829;-62
2023/04/30 23:56:03;;;;;;;;;;;;;;;20.07;44.12;95534.47;10238420;28;1857;-62
